createdAt,value
2022-12-12T00:00:31.563Z,38.85
2022-12-12T00:03:19.368Z,41.15
2022-12-12T00:06:07.011Z,41.25
2022-12-12T00:08:54.474Z,40.00
2022-12-12T00:11:42.238Z,43.20
2022-12-12T00:14:29.761Z,37.92
2022-12-12T00:17:17.260Z,40.47
2022-12-12T00:20:05.938Z,40.13
2022-12-12T00:22:53.462Z,38.15
2022-12-12T00:25:41.054Z,39.53
2022-12-12T00:28:28.965Z,35.47
2022-12-12T00:31:16.657Z,39.42
2022-12-12T00:34:04.273Z,35.22
2022-12-12T00:36:51.883Z,32.58
2022-12-12T00:39:39.025Z,32.63
2022-12-12T00:42:27.303Z,35.50
2022-12-12T00:45:15.055Z,40.83
2022-12-12T00:48:02.598Z,36.20
2022-12-12T00:50:49.893Z,39.58
2022-12-12T00:53:38.525Z,39.97
2022-12-12T00:56:27.712Z,40.45
2022-12-12T00:59:15.168Z,39.45
2022-12-12T01:02:02.367Z,39.78
2022-12-12T01:04:49.919Z,36.42
2022-12-12T01:07:38.416Z,38.92
2022-12-12T01:10:25.937Z,36.50
2022-12-12T01:13:13.498Z,38.67
2022-12-12T01:16:01.104Z,39.97
2022-12-12T01:18:48.643Z,37.28
2022-12-12T01:21:36.954Z,37.00
2022-12-12T01:24:24.438Z,41.03
2022-12-12T01:27:12.076Z,39.58
2022-12-12T01:30:01.791Z,37.63
2022-12-12T01:32:49.642Z,36.60
2022-12-12T01:35:37.138Z,33.60
2022-12-12T01:38:24.674Z,37.97
2022-12-12T01:41:12.160Z,36.13
2022-12-12T01:44:04.330Z,36.38
2022-12-12T01:46:52.003Z,37.92
2022-12-12T01:49:40.998Z,35.35
2022-12-12T01:52:40.785Z,32.75
2022-12-12T01:55:28.288Z,36.08
2022-12-12T01:58:16.377Z,34.53
2022-12-12T02:01:03.982Z,35.63
2022-12-12T02:03:51.552Z,35.47
2022-12-12T02:06:40.505Z,33.80
2022-12-12T02:09:28.174Z,35.58
2022-12-12T02:12:15.728Z,31.85
2022-12-12T02:15:04.626Z,34.60
2022-12-12T02:18:09.841Z,35.45
2022-12-12T02:20:59.936Z,37.00
2022-12-12T02:24:20.425Z,34.63
2022-12-12T02:27:27.751Z,34.83
2022-12-12T02:30:22.274Z,37.97
2022-12-12T02:33:25.604Z,35.35
2022-12-12T02:37:01.453Z,37.75
2022-12-12T02:40:11.417Z,35.25
2022-12-12T02:43:13.507Z,38.50
2022-12-12T02:46:24.388Z,35.28
2022-12-12T02:49:14.746Z,35.67
2022-12-12T02:52:03.192Z,34.17
2022-12-12T02:54:50.757Z,33.58
2022-12-12T02:57:41.684Z,33.53
2022-12-12T03:00:34.567Z,35.03
2022-12-12T03:03:54.484Z,34.83
2022-12-12T03:07:06.284Z,33.28
2022-12-12T03:10:03.196Z,35.90
2022-12-12T03:13:13.101Z,39.42
2022-12-12T03:16:39.798Z,38.25
2022-12-12T03:19:42.217Z,39.65
2022-12-12T03:22:44.700Z,41.67
2022-12-12T03:25:44.304Z,43.72
2022-12-12T03:28:43.109Z,45.20
2022-12-12T03:31:34.477Z,46.67
2022-12-12T03:34:31.583Z,47.17
2022-12-12T03:37:42.230Z,48.78
2022-12-12T03:40:40.968Z,44.38
2022-12-12T03:43:28.440Z,45.35
2022-12-12T03:46:32.583Z,45.75
2022-12-12T03:49:36.623Z,49.30
2022-12-12T03:52:41.252Z,42.70
2022-12-12T03:55:55.860Z,53.85
2022-12-12T03:59:01.714Z,46.97
2022-12-12T04:01:57.412Z,43.33
2022-12-12T04:04:55.109Z,45.75
2022-12-12T04:07:46.765Z,42.30
2022-12-12T04:11:06.504Z,62.60
2022-12-12T04:14:12.194Z,43.17
2022-12-12T04:17:04.129Z,45.40
2022-12-12T04:20:21.997Z,46.60
2022-12-12T04:23:42.948Z,47.70
2022-12-12T04:26:44.421Z,44.92
2022-12-12T04:29:50.161Z,45.78
2022-12-12T04:33:09.195Z,48.25
2022-12-12T04:35:59.304Z,39.65
2022-12-12T04:38:47.638Z,52.97
2022-12-12T04:41:36.912Z,51.45
2022-12-12T04:44:27.208Z,57.95
2022-12-12T04:47:15.548Z,88.10
2022-12-12T04:50:03.772Z,62.72
2022-12-12T04:52:53.595Z,88.03
2022-12-12T04:55:44.685Z,49.08
2022-12-12T04:58:32.214Z,67.90
2022-12-12T05:01:32.415Z,85.13
2022-12-12T05:04:31.093Z,59.70
2022-12-12T05:07:40.672Z,56.47
2022-12-12T05:10:28.262Z,56.53
2022-12-12T05:13:23.589Z,68.55
2022-12-12T05:16:14.892Z,55.10
2022-12-12T05:19:02.394Z,60.78
2022-12-12T05:21:49.948Z,49.65
2022-12-12T05:24:37.428Z,50.25
2022-12-12T05:27:24.886Z,49.90
2022-12-12T05:30:12.452Z,54.22
2022-12-12T05:32:59.956Z,106.15
2022-12-12T05:35:47.421Z,80.60
2022-12-12T05:38:35.084Z,59.50
2022-12-12T05:41:22.633Z,39.58
2022-12-12T05:44:10.114Z,60.95
2022-12-12T05:46:57.598Z,54.85
2022-12-12T05:49:45.488Z,58.70
2022-12-12T05:52:33.179Z,56.25
2022-12-12T05:55:20.230Z,55.25
2022-12-12T05:58:07.461Z,45.58
2022-12-12T06:00:57.350Z,70.00
2022-12-12T06:03:49.186Z,46.72
2022-12-12T06:06:36.770Z,45.15
2022-12-12T06:09:24.241Z,44.00
2022-12-12T06:12:12.107Z,42.72
2022-12-12T06:14:59.241Z,46.33
2022-12-12T06:17:46.338Z,37.72
2022-12-12T06:20:33.883Z,36.83
2022-12-12T06:23:21.342Z,41.50
2022-12-12T06:26:11.103Z,38.95
2022-12-12T06:28:58.318Z,41.95
2022-12-12T06:31:45.859Z,38.67
2022-12-12T06:34:33.333Z,45.53
2022-12-12T06:37:21.148Z,45.17
2022-12-12T06:40:08.829Z,49.25
2022-12-12T06:42:57.126Z,41.10
2022-12-12T06:45:44.380Z,46.38
2022-12-12T06:48:33.384Z,52.58
2022-12-12T06:51:24.300Z,43.50
2022-12-12T06:54:13.661Z,38.50
2022-12-12T06:57:01.158Z,40.15
2022-12-12T06:59:51.156Z,38.88
2022-12-12T07:02:38.791Z,45.85
2022-12-12T07:05:26.317Z,44.30
2022-12-12T07:08:15.140Z,48.10
2022-12-12T07:11:11.596Z,50.60
2022-12-12T07:13:59.997Z,45.15
2022-12-12T07:16:47.544Z,43.17
2022-12-12T07:19:35.083Z,38.00
2022-12-12T07:22:22.611Z,49.95
2022-12-12T07:25:10.278Z,43.25
2022-12-12T07:27:57.949Z,40.30
2022-12-12T07:30:47.093Z,37.60
2022-12-12T07:33:43.141Z,38.38
2022-12-12T07:36:31.803Z,42.13
2022-12-12T07:39:21.130Z,41.65
2022-12-12T07:42:08.732Z,38.00
2022-12-12T07:44:56.223Z,42.28
2022-12-12T07:47:43.937Z,40.70
2022-12-12T07:50:31.405Z,40.92
2022-12-12T07:53:18.493Z,34.85
2022-12-12T07:56:07.630Z,34.90
2022-12-12T07:58:55.536Z,35.85
2022-12-12T08:01:43.108Z,32.90
2022-12-12T08:04:30.355Z,37.58
2022-12-12T08:07:17.827Z,45.38
2022-12-12T08:10:06.969Z,35.45
2022-12-12T08:12:54.514Z,35.25
2022-12-12T08:15:42.962Z,36.72
2022-12-12T08:18:30.705Z,38.90
2022-12-12T08:21:25.134Z,44.13
2022-12-12T08:24:15.263Z,36.00
2022-12-12T08:27:02.381Z,36.55
2022-12-12T08:29:54.544Z,34.83
2022-12-12T08:32:42.032Z,37.33
2022-12-12T08:35:32.735Z,35.05
2022-12-12T08:38:20.370Z,33.88
2022-12-12T08:41:07.872Z,31.13
2022-12-12T08:43:55.305Z,36.00
2022-12-12T08:46:42.811Z,35.10
2022-12-12T08:49:31.362Z,37.20
2022-12-12T08:52:18.953Z,32.03
2022-12-12T08:55:06.540Z,35.13
2022-12-12T08:57:54.096Z,31.35
2022-12-12T09:00:41.710Z,38.05
2022-12-12T09:03:29.849Z,39.97
2022-12-12T09:06:18.352Z,36.90
2022-12-12T09:09:06.157Z,40.15
2022-12-12T09:11:53.299Z,37.65
2022-12-12T09:14:40.388Z,38.92
2022-12-12T09:17:27.981Z,38.30
2022-12-12T09:20:16.019Z,40.50
2022-12-12T09:23:03.593Z,41.90
2022-12-12T09:25:51.286Z,34.00
2022-12-12T09:28:39.142Z,34.22
2022-12-12T09:31:26.805Z,44.90
2022-12-12T09:34:14.394Z,41.20
2022-12-12T09:37:02.082Z,40.20
2022-12-12T09:39:52.189Z,35.13
2022-12-12T09:42:46.387Z,35.63
2022-12-12T09:45:36.584Z,33.60
2022-12-12T09:48:35.707Z,36.85
2022-12-12T09:51:23.605Z,35.33
2022-12-12T09:54:14.877Z,35.92
2022-12-12T09:57:09.787Z,40.47
2022-12-12T09:59:57.321Z,36.92
2022-12-12T10:03:15.493Z,35.50
2022-12-12T10:06:35.908Z,35.22
2022-12-12T10:09:31.705Z,35.70
2022-12-12T10:12:21.618Z,35.00
2022-12-12T10:15:25.065Z,34.58
2022-12-12T10:18:17.370Z,35.13
2022-12-12T10:21:14.222Z,37.13
2022-12-12T10:24:10.017Z,31.02
2022-12-12T10:26:59.515Z,31.05
2022-12-12T10:29:48.594Z,39.92
2022-12-12T10:33:14.862Z,33.40
2022-12-12T10:36:14.014Z,34.63
2022-12-12T10:39:20.885Z,38.28
2022-12-12T10:42:23.630Z,37.58
2022-12-12T10:45:49.833Z,40.47
2022-12-12T10:48:37.435Z,43.92
2022-12-12T10:51:27.594Z,39.85
2022-12-12T10:54:23.890Z,39.65
2022-12-12T10:57:20.285Z,42.58
2022-12-12T11:00:26.991Z,37.08
2022-12-12T11:03:31.959Z,42.67
2022-12-12T11:06:29.066Z,35.20
2022-12-12T11:09:20.510Z,42.78
2022-12-12T11:12:16.348Z,37.88
2022-12-12T11:15:26.063Z,41.47
2022-12-12T11:18:20.528Z,40.40
2022-12-12T11:21:12.768Z,40.70
2022-12-12T11:24:04.464Z,36.58
2022-12-12T11:27:01.919Z,37.22
2022-12-12T11:29:52.758Z,41.88
2022-12-12T11:32:42.276Z,38.78
2022-12-12T11:35:36.667Z,40.03
2022-12-12T11:38:37.622Z,39.78
2022-12-12T11:41:25.076Z,35.67
2022-12-12T11:44:25.742Z,44.50
2022-12-12T11:47:22.931Z,40.15
2022-12-12T11:50:28.415Z,44.90
2022-12-12T11:53:15.947Z,49.67
2022-12-12T11:56:12.085Z,39.55
2022-12-12T11:58:59.521Z,35.15
2022-12-12T12:02:05.585Z,38.95
2022-12-12T12:05:18.060Z,36.63
2022-12-12T12:08:05.657Z,37.03
2022-12-12T12:11:14.373Z,38.90
2022-12-12T12:14:17.847Z,39.63
2022-12-12T12:17:20.059Z,38.75
2022-12-12T12:20:19.242Z,38.75
2022-12-12T12:23:41.201Z,33.97
2022-12-12T12:26:35.347Z,36.60
2022-12-12T12:29:33.759Z,36.45
2022-12-12T12:32:35.419Z,33.47
2022-12-12T12:35:29.639Z,33.58
2022-12-12T12:38:33.099Z,33.95
2022-12-12T12:41:20.666Z,33.20
2022-12-12T12:44:08.177Z,70.97
2022-12-12T12:47:11.038Z,73.10
2022-12-12T12:50:24.887Z,37.40
2022-12-12T12:53:24.865Z,46.67
2022-12-12T12:56:26.212Z,38.05
2022-12-12T12:59:21.095Z,38.22
2022-12-12T13:02:23.717Z,38.40
2022-12-12T13:05:26.359Z,38.28
2022-12-12T13:08:28.442Z,36.00
2022-12-12T13:11:22.643Z,36.58
2022-12-12T13:14:30.236Z,35.60
2022-12-12T13:17:23.334Z,40.45
2022-12-12T13:20:17.296Z,31.17
2022-12-12T13:23:20.012Z,34.90
2022-12-12T13:26:19.863Z,34.75
2022-12-12T13:29:07.389Z,32.72
2022-12-12T13:31:54.423Z,37.53
2022-12-12T13:34:46.342Z,32.13
2022-12-12T13:37:43.422Z,34.13
2022-12-12T13:40:39.057Z,30.80
2022-12-12T13:43:29.391Z,37.50
2022-12-12T13:46:26.440Z,31.75
2022-12-12T13:49:21.439Z,30.00
2022-12-12T13:52:22.934Z,32.50
2022-12-12T13:55:12.842Z,32.58
2022-12-12T13:58:02.392Z,33.33
2022-12-12T14:01:27.685Z,30.73
2022-12-12T14:04:35.279Z,31.08
2022-12-12T14:07:23.562Z,33.55
2022-12-12T14:10:24.553Z,32.88
2022-12-12T14:13:23.820Z,34.75
2022-12-12T14:16:13.787Z,34.17
2022-12-12T14:19:07.524Z,31.65
2022-12-12T14:21:54.956Z,34.60
2022-12-12T14:24:53.441Z,31.67
2022-12-12T14:27:49.557Z,31.92
2022-12-12T14:30:56.927Z,35.92
2022-12-12T14:34:14.838Z,35.72
2022-12-12T14:37:51.393Z,35.95
2022-12-12T14:40:45.413Z,35.00
2022-12-12T14:43:40.234Z,37.65
2022-12-12T14:46:30.078Z,36.67
2022-12-12T14:49:18.610Z,39.00
2022-12-12T14:52:06.284Z,37.08
2022-12-12T14:54:53.779Z,34.55
2022-12-12T14:57:41.282Z,34.45
2022-12-12T15:00:29.016Z,34.53
2022-12-12T15:03:22.258Z,38.10
2022-12-12T15:06:31.812Z,36.45
2022-12-12T15:09:29.802Z,39.75
2022-12-12T15:12:20.493Z,37.17
2022-12-12T15:15:23.551Z,33.83
2022-12-12T15:18:11.303Z,39.67
2022-12-12T15:20:58.812Z,36.92
2022-12-12T15:23:46.317Z,39.97
2022-12-12T15:26:33.824Z,41.80
2022-12-12T15:29:24.245Z,42.08
2022-12-12T15:32:20.772Z,49.53
2022-12-12T15:35:08.433Z,44.08
2022-12-12T15:37:59.725Z,44.92
2022-12-12T15:40:51.893Z,41.80
2022-12-12T15:43:39.909Z,54.38
2022-12-12T15:46:30.183Z,53.05
2022-12-12T15:49:38.494Z,46.58
2022-12-12T15:52:30.269Z,52.95
2022-12-12T15:55:21.560Z,59.67
2022-12-12T15:58:28.901Z,80.45
2022-12-12T16:01:20.240Z,81.13
2022-12-12T16:04:09.619Z,82.82
2022-12-12T16:07:20.005Z,68.28
2022-12-12T16:10:10.046Z,65.90
2022-12-12T16:13:20.745Z,61.78
2022-12-12T16:16:35.562Z,64.25
2022-12-12T16:19:37.900Z,64.78
2022-12-12T16:22:32.207Z,63.15
2022-12-12T16:25:21.309Z,76.38
2022-12-12T16:28:09.605Z,70.72
2022-12-12T16:30:57.088Z,68.55
2022-12-12T16:33:44.685Z,62.88
2022-12-12T16:36:39.942Z,58.95
2022-12-12T16:39:29.263Z,55.63
2022-12-12T16:42:19.280Z,61.35
2022-12-12T16:45:06.943Z,53.17
2022-12-12T16:47:54.516Z,58.88
2022-12-12T16:50:42.098Z,55.85
2022-12-12T16:53:29.674Z,55.90
2022-12-12T16:56:17.492Z,53.42
2022-12-12T16:59:04.534Z,49.58
2022-12-12T17:01:51.620Z,51.45
2022-12-12T17:04:39.155Z,56.97
2022-12-12T17:07:26.670Z,54.70
2022-12-12T17:10:14.421Z,54.75
2022-12-12T17:13:05.282Z,58.25
2022-12-12T17:15:54.969Z,59.28
2022-12-12T17:18:42.507Z,61.35
2022-12-12T17:21:29.999Z,54.80
2022-12-12T17:24:17.512Z,53.72
2022-12-12T17:27:05.469Z,50.17
2022-12-12T17:29:52.951Z,51.75
2022-12-12T17:32:40.791Z,49.92
2022-12-12T17:35:28.284Z,97.20
2022-12-12T17:38:16.699Z,84.45
2022-12-12T17:41:08.753Z,49.17
2022-12-12T17:43:56.890Z,61.67
2022-12-12T17:46:44.429Z,63.83
2022-12-12T17:49:32.186Z,56.38
2022-12-12T17:52:21.488Z,50.05
2022-12-12T17:55:55.237Z,50.83
2022-12-12T17:58:16.525Z,48.55
2022-12-12T18:01:12.368Z,39.75
2022-12-12T18:04:00.351Z,46.42
2022-12-12T18:06:48.210Z,51.67
2022-12-12T18:09:35.792Z,52.00
2022-12-12T18:12:23.253Z,48.25
2022-12-12T18:15:10.970Z,49.17
2022-12-12T18:17:58.507Z,54.03
2022-12-12T18:20:45.588Z,48.17
2022-12-12T18:23:33.483Z,45.30
2022-12-12T18:26:22.657Z,51.22
2022-12-12T18:29:11.996Z,47.33
2022-12-12T18:31:59.613Z,50.00
2022-12-12T18:34:46.753Z,44.97
2022-12-12T18:37:34.331Z,45.67
2022-12-12T18:40:21.810Z,54.88
2022-12-12T18:43:09.089Z,45.78
2022-12-12T18:45:56.986Z,54.90
2022-12-12T18:48:46.820Z,49.58
2022-12-12T18:51:33.886Z,46.88
2022-12-12T18:54:21.373Z,43.83
2022-12-12T18:57:08.876Z,47.35
2022-12-12T18:59:56.398Z,42.22
2022-12-12T19:02:44.586Z,39.28
2022-12-12T19:05:32.213Z,44.33
2022-12-12T19:08:20.197Z,44.97
2022-12-12T19:11:08.538Z,41.88
2022-12-12T19:13:56.069Z,41.70
2022-12-12T19:16:44.215Z,41.92
2022-12-12T19:19:31.807Z,50.45
2022-12-12T19:22:44.003Z,56.22
2022-12-12T19:25:26.993Z,62.47
2022-12-12T19:28:14.547Z,58.30
2022-12-12T19:31:07.687Z,163.73
2022-12-12T19:33:55.338Z,56.70
2022-12-12T19:36:43.219Z,44.80
2022-12-12T19:39:30.710Z,46.30
2022-12-12T19:42:17.817Z,42.03
2022-12-12T19:45:05.678Z,40.78
2022-12-12T19:47:53.350Z,41.85
2022-12-12T19:50:41.709Z,45.75
2022-12-12T19:53:29.081Z,42.30
2022-12-12T19:56:19.954Z,39.83
2022-12-12T19:59:07.779Z,40.38
2022-12-12T20:01:55.337Z,40.03
2022-12-12T20:04:42.930Z,45.08
2022-12-12T20:07:29.962Z,39.78
2022-12-12T20:10:17.500Z,42.78
2022-12-12T20:13:04.737Z,39.78
2022-12-12T20:15:52.243Z,38.33
2022-12-12T20:18:39.787Z,37.67
2022-12-12T20:22:00.254Z,33.88
2022-12-12T20:24:37.351Z,37.53
2022-12-12T20:27:25.062Z,39.92
2022-12-12T20:30:12.945Z,36.53
2022-12-12T20:33:00.785Z,37.58
2022-12-12T20:35:48.423Z,35.97
2022-12-12T20:38:37.029Z,38.70
2022-12-12T20:41:30.537Z,37.17
2022-12-12T20:44:18.214Z,39.17
2022-12-12T20:47:06.981Z,40.05
2022-12-12T20:49:54.728Z,38.58
2022-12-12T20:52:42.705Z,37.50
2022-12-12T20:55:30.746Z,36.55
2022-12-12T20:58:18.248Z,34.80
2022-12-12T21:01:14.651Z,33.75
2022-12-12T21:04:04.281Z,33.33
2022-12-12T21:06:52.117Z,34.40
2022-12-12T21:09:39.909Z,34.70
2022-12-12T21:12:27.409Z,33.08
2022-12-12T21:15:15.185Z,33.60
2022-12-12T21:18:02.982Z,38.35
2022-12-12T21:20:50.551Z,34.35
2022-12-12T21:23:38.434Z,35.05
2022-12-12T21:26:29.377Z,38.15
2022-12-12T21:29:17.036Z,38.63
2022-12-12T21:32:04.820Z,38.40
2022-12-12T21:34:52.352Z,37.97
2022-12-12T21:37:40.686Z,42.55
2022-12-12T21:40:28.403Z,42.60
2022-12-12T21:43:15.906Z,42.60
2022-12-12T21:46:17.634Z,43.45
2022-12-12T21:49:25.428Z,44.22
2022-12-12T21:52:13.909Z,41.65
2022-12-12T21:55:01.438Z,40.72
2022-12-12T21:57:49.042Z,36.83
2022-12-12T22:00:39.993Z,39.38
2022-12-12T22:03:27.475Z,38.45
2022-12-12T22:06:14.941Z,34.90
2022-12-12T22:09:05.845Z,58.28
2022-12-12T22:12:03.325Z,43.92
2022-12-12T22:14:51.894Z,44.92
2022-12-12T22:17:39.479Z,35.97
2022-12-12T22:20:27.307Z,38.60
2022-12-12T22:23:14.808Z,35.90
2022-12-12T22:26:02.439Z,34.47
2022-12-12T22:28:51.300Z,36.42
2022-12-12T22:31:40.325Z,31.60
2022-12-12T22:34:29.038Z,39.50
2022-12-12T22:37:16.553Z,38.20
2022-12-12T22:40:04.017Z,41.53
2022-12-12T22:42:51.594Z,34.95
2022-12-12T22:45:39.184Z,37.00
2022-12-12T22:48:26.669Z,36.90
2022-12-12T22:51:20.379Z,38.30
2022-12-12T22:54:08.070Z,43.25
2022-12-12T22:56:55.709Z,36.65
2022-12-12T22:59:44.676Z,38.38
2022-12-12T23:02:32.239Z,39.88
2022-12-12T23:05:19.972Z,36.50
2022-12-12T23:08:07.863Z,35.55
2022-12-12T23:10:55.401Z,33.35
2022-12-12T23:13:46.458Z,33.25
2022-12-12T23:16:37.560Z,35.90
2022-12-12T23:19:26.128Z,32.13
2022-12-12T23:22:14.001Z,34.80
2022-12-12T23:25:01.519Z,35.15
2022-12-12T23:27:49.006Z,36.97
2022-12-12T23:30:37.789Z,37.30
2022-12-12T23:33:26.108Z,33.30
2022-12-12T23:36:15.290Z,35.28
2022-12-12T23:39:06.164Z,34.05
2022-12-12T23:41:54.043Z,32.83
2022-12-12T23:44:41.627Z,32.65
2022-12-12T23:47:29.148Z,32.55
2022-12-12T23:50:16.732Z,35.95
2022-12-12T23:53:10.319Z,34.03
2022-12-12T23:56:02.630Z,32.30
2022-12-12T23:58:50.168Z,32.58
